createdAt,value
2022-12-19T00:01:36.242Z,83.88
2022-12-19T00:04:08.358Z,70.22
2022-12-19T00:06:36.486Z,74.13
2022-12-19T00:09:03.127Z,78.22
2022-12-19T00:11:30.155Z,74.68
2022-12-19T00:13:57.597Z,80.53
2022-12-19T00:16:28.408Z,77.85
2022-12-19T00:18:57.060Z,65.65
2022-12-19T00:21:25.734Z,65.90
2022-12-19T00:23:52.683Z,69.72
2022-12-19T00:26:25.494Z,71.80
2022-12-19T00:28:54.831Z,71.70
2022-12-19T00:31:25.549Z,78.32
2022-12-19T00:33:52.355Z,73.30
2022-12-19T00:36:23.020Z,79.95
2022-12-19T00:38:51.413Z,72.13
2022-12-19T00:41:23.230Z,68.10
2022-12-19T00:44:04.457Z,77.63
2022-12-19T00:46:32.662Z,71.40
2022-12-19T00:48:59.951Z,79.53
2022-12-19T00:51:29.301Z,88.35
2022-12-19T00:53:57.627Z,88.40
2022-12-19T00:56:27.731Z,108.25
2022-12-19T00:58:55.092Z,115.40
2022-12-19T01:01:30.830Z,126.20
2022-12-19T01:04:27.330Z,158.88
2022-12-19T01:06:45.550Z,178.95
2022-12-19T01:09:12.706Z,184.88
2022-12-19T01:11:57.786Z,203.13
2022-12-19T01:14:24.368Z,202.68
2022-12-19T01:16:54.178Z,217.40
2022-12-19T01:19:20.774Z,219.75
2022-12-19T01:21:47.334Z,210.02
2022-12-19T01:24:15.217Z,236.80
2022-12-19T01:26:46.085Z,231.30
2022-12-19T01:29:12.807Z,245.85
2022-12-19T01:31:39.491Z,229.75
2022-12-19T01:34:06.101Z,230.45
2022-12-19T01:36:32.752Z,216.68
2022-12-19T01:38:59.272Z,210.13
2022-12-19T01:41:25.845Z,177.43
2022-12-19T01:44:00.121Z,191.45
2022-12-19T01:46:40.983Z,161.90
2022-12-19T01:49:15.848Z,160.80
2022-12-19T01:51:46.713Z,159.10
2022-12-19T01:54:24.329Z,148.52
2022-12-19T01:56:53.192Z,141.85
2022-12-19T01:59:27.011Z,144.55
2022-12-19T02:02:00.185Z,144.95
2022-12-19T02:04:31.908Z,139.05
2022-12-19T02:07:00.274Z,138.10
2022-12-19T02:09:40.127Z,135.27
2022-12-19T02:12:06.764Z,133.63
2022-12-19T02:14:34.631Z,118.90
2022-12-19T02:17:17.683Z,119.30
2022-12-19T02:19:53.184Z,124.65
2022-12-19T02:23:03.270Z,130.65
2022-12-19T02:25:45.010Z,133.20
2022-12-19T02:28:35.710Z,122.28
2022-12-19T02:31:19.412Z,121.75
2022-12-19T02:33:59.924Z,119.80
2022-12-19T02:36:38.901Z,119.93
2022-12-19T02:39:09.531Z,117.22
2022-12-19T02:41:44.050Z,121.38
2022-12-19T02:44:19.218Z,130.45
2022-12-19T02:46:47.972Z,163.70
2022-12-19T02:49:19.169Z,126.38
2022-12-19T02:51:52.593Z,124.13
2022-12-19T02:54:19.590Z,126.20
2022-12-19T02:56:58.995Z,123.85
2022-12-19T03:00:06.157Z,124.57
2022-12-19T03:02:40.831Z,121.93
2022-12-19T03:05:29.223Z,122.85
2022-12-19T03:08:07.574Z,122.47
2022-12-19T03:10:48.724Z,126.15
2022-12-19T03:13:21.748Z,121.18
2022-12-19T03:15:49.268Z,125.07
2022-12-19T03:18:15.852Z,125.55
2022-12-19T03:20:59.742Z,134.10
2022-12-19T03:23:28.095Z,124.95
2022-12-19T03:25:59.529Z,122.28
2022-12-19T03:28:33.471Z,128.20
2022-12-19T03:31:02.088Z,129.27
2022-12-19T03:33:31.619Z,125.95
2022-12-19T03:36:01.494Z,129.27
2022-12-19T03:38:28.693Z,130.45
2022-12-19T03:40:56.394Z,128.88
2022-12-19T03:43:24.202Z,130.02
2022-12-19T03:46:09.073Z,128.45
2022-12-19T03:48:51.028Z,121.85
2022-12-19T03:51:35.093Z,119.50
2022-12-19T03:54:25.183Z,122.88
2022-12-19T03:57:02.130Z,122.03
2022-12-19T04:00:03.613Z,126.15
2022-12-19T04:02:34.290Z,121.78
2022-12-19T04:05:08.670Z,130.77
2022-12-19T04:07:38.017Z,123.78
2022-12-19T04:10:07.970Z,134.60
2022-12-19T04:12:40.346Z,136.38
2022-12-19T04:15:08.067Z,127.57
2022-12-19T04:17:58.217Z,134.60
2022-12-19T04:20:27.103Z,130.57
2022-12-19T04:22:59.504Z,132.82
2022-12-19T04:25:34.154Z,136.05
2022-12-19T04:28:10.337Z,135.40
2022-12-19T04:30:39.886Z,129.57
2022-12-19T04:33:06.459Z,131.57
2022-12-19T04:35:35.134Z,131.88
2022-12-19T04:38:02.237Z,133.10
2022-12-19T04:40:29.197Z,133.18
2022-12-19T04:42:55.793Z,137.93
2022-12-19T04:45:22.391Z,136.88
2022-12-19T04:47:49.369Z,138.43
2022-12-19T04:50:15.905Z,137.18
2022-12-19T04:52:42.440Z,141.43
2022-12-19T04:55:09.490Z,147.98
2022-12-19T04:57:36.144Z,144.18
2022-12-19T05:00:05.061Z,143.18
2022-12-19T05:02:32.175Z,139.93
2022-12-19T05:04:58.911Z,149.05
2022-12-19T05:07:25.507Z,146.07
2022-12-19T05:09:52.087Z,144.20
2022-12-19T05:12:18.633Z,144.35
2022-12-19T05:14:45.570Z,145.82
2022-12-19T05:17:12.092Z,150.23
2022-12-19T05:19:38.681Z,146.93
2022-12-19T05:22:05.366Z,139.75
2022-12-19T05:24:31.933Z,140.50
2022-12-19T05:26:58.752Z,144.85
2022-12-19T05:29:25.340Z,152.60
2022-12-19T05:31:51.883Z,145.98
2022-12-19T05:34:18.421Z,141.48
2022-12-19T05:36:45.032Z,144.60
2022-12-19T05:39:11.622Z,152.93
2022-12-19T05:41:38.223Z,144.50
2022-12-19T05:44:05.102Z,140.60
2022-12-19T05:46:31.761Z,148.52
2022-12-19T05:48:59.302Z,154.77
2022-12-19T05:51:25.974Z,157.25
2022-12-19T05:53:52.675Z,151.27
2022-12-19T05:56:21.923Z,151.57
2022-12-19T05:58:49.191Z,162.00
2022-12-19T06:01:21.170Z,156.48
2022-12-19T06:03:48.956Z,152.30
2022-12-19T06:06:18.202Z,148.50
2022-12-19T06:08:45.271Z,153.93
2022-12-19T06:11:13.558Z,155.68
2022-12-19T06:13:40.963Z,157.65
2022-12-19T06:16:11.021Z,156.00
2022-12-19T06:18:42.878Z,159.27
2022-12-19T06:21:14.704Z,160.82
2022-12-19T06:23:41.920Z,157.27
2022-12-19T06:26:16.876Z,160.68
2022-12-19T06:28:46.105Z,155.50
2022-12-19T06:31:13.403Z,157.02
2022-12-19T06:33:40.083Z,158.70
2022-12-19T06:36:13.858Z,152.02
2022-12-19T06:38:40.519Z,165.25
2022-12-19T06:41:25.286Z,165.18
2022-12-19T06:43:53.520Z,158.18
2022-12-19T06:46:20.755Z,160.23
2022-12-19T06:48:47.369Z,177.05
2022-12-19T06:51:14.068Z,170.27
2022-12-19T06:53:40.576Z,171.48
2022-12-19T06:56:07.585Z,161.07
2022-12-19T06:58:34.921Z,169.00
2022-12-19T07:01:01.834Z,174.30
2022-12-19T07:03:37.617Z,170.48
2022-12-19T07:06:04.890Z,158.77
2022-12-19T07:08:31.444Z,161.30
2022-12-19T07:10:59.068Z,175.60
2022-12-19T07:13:27.497Z,181.43
2022-12-19T07:15:59.654Z,163.13
2022-12-19T07:18:26.451Z,173.38
2022-12-19T07:20:53.002Z,172.00
2022-12-19T07:23:22.109Z,198.45
2022-12-19T07:25:48.718Z,166.00
2022-12-19T07:28:16.261Z,168.25
2022-12-19T07:30:42.769Z,180.82
2022-12-19T07:33:11.259Z,221.38
2022-12-19T07:35:38.918Z,175.85
2022-12-19T07:38:06.832Z,160.40
2022-12-19T07:40:34.339Z,170.32
2022-12-19T07:43:05.780Z,178.23
2022-12-19T07:45:33.019Z,167.32
2022-12-19T07:48:03.505Z,154.02
2022-12-19T07:50:30.619Z,157.32
2022-12-19T07:52:58.385Z,181.35
2022-12-19T07:55:25.802Z,168.93
2022-12-19T07:57:53.529Z,134.77
2022-12-19T08:00:20.172Z,128.13
2022-12-19T08:02:47.790Z,136.15
2022-12-19T08:05:14.476Z,132.27
2022-12-19T08:07:41.008Z,129.55
2022-12-19T08:10:08.299Z,131.65
2022-12-19T08:12:34.893Z,137.65
2022-12-19T08:15:01.606Z,146.43
2022-12-19T08:17:28.340Z,143.98
2022-12-19T08:19:54.871Z,141.00
2022-12-19T08:22:21.580Z,144.80
2022-12-19T08:24:48.140Z,161.50
2022-12-19T08:27:16.937Z,169.63
2022-12-19T08:29:43.438Z,154.60
2022-12-19T08:32:10.256Z,153.48
2022-12-19T08:34:37.471Z,158.80
2022-12-19T08:37:03.989Z,194.77
2022-12-19T08:39:32.558Z,163.10
2022-12-19T08:41:59.279Z,164.32
2022-12-19T08:44:26.758Z,167.68
2022-12-19T08:46:53.337Z,172.32
2022-12-19T08:49:21.096Z,175.35
2022-12-19T08:51:47.728Z,171.95
2022-12-19T08:54:14.292Z,177.30
2022-12-19T08:56:46.577Z,216.88
2022-12-19T08:59:21.973Z,208.13
2022-12-19T09:01:57.398Z,203.15
2022-12-19T09:05:59.490Z,187.27
2022-12-19T09:07:10.679Z,206.45
2022-12-19T09:09:37.154Z,201.60
2022-12-19T09:12:04.013Z,197.55
2022-12-19T09:14:35.079Z,161.93
2022-12-19T09:17:01.729Z,166.07
2022-12-19T09:19:30.524Z,119.43
2022-12-19T09:21:57.067Z,80.60
2022-12-19T09:24:23.658Z,59.70
2022-12-19T09:26:50.167Z,53.78
2022-12-19T09:29:20.781Z,52.10
2022-12-19T09:31:55.372Z,48.95
2022-12-19T09:34:37.336Z,48.53
2022-12-19T09:37:11.661Z,44.22
2022-12-19T09:39:43.140Z,39.10
2022-12-19T09:42:26.988Z,37.58
2022-12-19T09:45:18.734Z,42.58
2022-12-19T09:48:01.335Z,40.60
2022-12-19T09:50:35.481Z,46.03
2022-12-19T09:53:19.269Z,42.08
2022-12-19T09:55:47.998Z,42.10
2022-12-19T09:58:41.166Z,37.85
2022-12-19T10:01:18.152Z,36.15
2022-12-19T10:03:51.465Z,34.45
2022-12-19T10:06:58.939Z,33.85
2022-12-19T10:11:45.831Z,35.42
2022-12-19T10:12:44.698Z,32.10
2022-12-19T10:15:04.823Z,32.65
2022-12-19T10:17:45.632Z,34.83
2022-12-19T10:20:12.250Z,34.47
2022-12-19T10:23:00.148Z,34.70
2022-12-19T10:25:44.898Z,34.97
2022-12-19T10:28:11.370Z,36.05
2022-12-19T10:30:45.241Z,36.03
2022-12-19T10:33:19.971Z,37.28
2022-12-19T10:35:54.396Z,34.60
2022-12-19T10:38:33.378Z,35.58
2022-12-19T10:41:27.326Z,34.40
2022-12-19T10:44:10.298Z,35.30
2022-12-19T10:46:46.192Z,36.60
2022-12-19T10:49:27.018Z,38.30
2022-12-19T10:51:56.223Z,35.42
2022-12-19T10:54:27.597Z,38.30
2022-12-19T10:57:18.872Z,35.88
2022-12-19T11:00:04.319Z,36.63
2022-12-19T11:02:44.771Z,36.33
2022-12-19T11:05:31.881Z,35.75
2022-12-19T11:08:00.234Z,36.80
2022-12-19T11:13:22.982Z,37.78
2022-12-19T11:19:13.424Z,39.08
2022-12-19T11:26:39.216Z,35.92
2022-12-19T11:29:31.604Z,37.08
2022-12-19T11:29:54.531Z,35.70
2022-12-19T11:30:42.999Z,34.88
2022-12-19T11:30:46.600Z,36.55
2022-12-19T11:33:27.936Z,35.53
2022-12-19T11:35:58.992Z,36.60
2022-12-19T11:38:48.935Z,36.55
2022-12-19T11:41:18.876Z,36.83
2022-12-19T11:44:08.687Z,36.15
2022-12-19T11:46:49.265Z,36.75
2022-12-19T11:49:37.216Z,36.10
2022-12-19T11:53:07.828Z,35.85
2022-12-19T11:55:47.387Z,37.17
2022-12-19T11:58:14.195Z,36.20
2022-12-19T12:00:50.760Z,36.33
2022-12-19T12:03:39.139Z,39.80
2022-12-19T12:06:18.176Z,36.78
2022-12-19T12:12:05.022Z,37.58
2022-12-19T12:16:34.937Z,37.63
2022-12-19T12:29:22.899Z,36.05
2022-12-19T12:30:10.119Z,36.80
2022-12-19T12:31:10.132Z,37.88
2022-12-19T12:31:41.205Z,38.28
2022-12-19T12:31:51.539Z,36.75
2022-12-19T12:35:31.715Z,37.50
2022-12-19T12:40:32.834Z,36.05
2022-12-19T12:43:37.047Z,39.67
2022-12-19T12:46:05.387Z,41.33
2022-12-19T12:48:43.046Z,37.92
2022-12-19T12:51:10.636Z,34.85
2022-12-19T12:53:45.113Z,37.25
2022-12-19T12:56:14.685Z,39.40
2022-12-19T12:58:47.127Z,38.88
2022-12-19T13:01:28.918Z,38.97
2022-12-19T13:04:24.645Z,38.88
2022-12-19T13:06:51.098Z,38.42
2022-12-19T13:09:17.564Z,41.55
2022-12-19T13:12:09.414Z,37.25
2022-12-19T13:14:35.995Z,38.03
2022-12-19T13:17:12.792Z,40.55
2022-12-19T13:19:58.022Z,37.95
2022-12-19T13:22:30.496Z,37.20
2022-12-19T13:24:59.343Z,38.90
2022-12-19T13:27:25.887Z,39.17
2022-12-19T13:30:03.586Z,37.03
2022-12-19T13:32:53.046Z,38.80
2022-12-19T13:36:49.321Z,38.33
2022-12-19T13:39:54.165Z,38.35
2022-12-19T13:41:23.229Z,40.67
2022-12-19T13:43:50.019Z,36.95
2022-12-19T13:46:22.594Z,40.13
2022-12-19T13:49:25.087Z,41.42
2022-12-19T13:51:57.216Z,38.50
2022-12-19T13:54:49.276Z,40.22
2022-12-19T13:57:28.523Z,38.55
2022-12-19T14:00:01.318Z,36.80
2022-12-19T14:02:44.499Z,37.00
2022-12-19T14:06:16.096Z,39.70
2022-12-19T14:08:28.382Z,39.60
2022-12-19T14:11:33.841Z,38.72
2022-12-19T14:14:16.109Z,35.50
2022-12-19T14:16:46.685Z,33.05
2022-12-19T14:19:22.887Z,37.13
2022-12-19T14:22:06.316Z,34.92
2022-12-19T14:24:36.540Z,34.92
2022-12-19T14:28:26.197Z,33.95
2022-12-19T14:30:27.441Z,32.40
2022-12-19T14:33:43.497Z,34.78
2022-12-19T14:36:07.515Z,34.30
2022-12-19T14:39:24.704Z,34.97
2022-12-19T14:42:00.614Z,36.20
2022-12-19T14:52:08.020Z,34.83
2022-12-19T14:54:04.474Z,36.58
2022-12-19T14:54:15.727Z,34.55
2022-12-19T14:54:55.334Z,39.22
2022-12-19T14:59:03.082Z,37.63
2022-12-19T15:01:33.496Z,35.63
2022-12-19T15:04:51.448Z,38.28
2022-12-19T15:07:11.308Z,36.38
2022-12-19T15:10:58.320Z,36.58
2022-12-19T15:14:50.735Z,36.85
2022-12-19T15:16:26.589Z,35.28
2022-12-19T15:18:56.906Z,34.83
2022-12-19T15:21:24.004Z,32.33
2022-12-19T15:23:50.623Z,34.80
2022-12-19T15:26:20.095Z,34.50
2022-12-19T15:28:51.379Z,33.72
2022-12-19T15:31:41.582Z,34.28
2022-12-19T15:34:46.635Z,35.40
2022-12-19T15:37:13.266Z,35.97
2022-12-19T15:39:40.810Z,39.25
2022-12-19T15:42:18.700Z,37.88
2022-12-19T15:44:47.145Z,35.67
2022-12-19T15:47:29.774Z,36.75
2022-12-19T15:49:56.435Z,38.63
2022-12-19T15:52:24.039Z,36.97
2022-12-19T15:54:51.246Z,40.05
2022-12-19T15:57:36.816Z,38.30
2022-12-19T16:00:07.800Z,40.63
2022-12-19T16:03:13.300Z,42.35
2022-12-19T16:05:22.907Z,39.42
2022-12-19T16:07:49.650Z,40.05
2022-12-19T16:10:17.778Z,38.88
2022-12-19T16:12:48.365Z,41.42
2022-12-19T16:15:34.651Z,39.95
2022-12-19T16:18:03.363Z,41.08
2022-12-19T16:20:39.403Z,40.30
2022-12-19T16:23:07.183Z,44.22
2022-12-19T16:25:41.025Z,42.90
2022-12-19T16:28:15.014Z,41.13
2022-12-19T16:30:44.374Z,41.73
2022-12-19T16:33:23.154Z,42.10
2022-12-19T16:36:07.379Z,42.80
2022-12-19T16:38:35.005Z,41.22
2022-12-19T16:41:01.945Z,44.58
2022-12-19T16:43:33.387Z,43.53
2022-12-19T16:46:01.808Z,40.85
2022-12-19T16:48:32.229Z,43.00
2022-12-19T16:50:59.457Z,41.75
2022-12-19T16:53:26.229Z,39.75
2022-12-19T16:55:55.437Z,39.92
2022-12-19T16:58:25.636Z,38.40
2022-12-19T17:00:55.071Z,40.58
2022-12-19T17:03:42.278Z,43.65
2022-12-19T17:06:17.435Z,41.80
2022-12-19T17:08:44.799Z,40.97
2022-12-19T17:11:24.281Z,44.78
2022-12-19T17:13:55.353Z,39.53
2022-12-19T17:16:22.048Z,42.63
2022-12-19T17:18:48.967Z,39.92
2022-12-19T17:21:21.805Z,40.90
2022-12-19T17:23:49.820Z,41.38
2022-12-19T17:26:18.172Z,43.10
2022-12-19T17:28:48.173Z,41.00
2022-12-19T17:31:28.044Z,43.35
2022-12-19T17:33:56.521Z,45.25
2022-12-19T17:36:36.584Z,45.95
2022-12-19T17:39:18.097Z,45.58
2022-12-19T17:41:45.027Z,44.03
2022-12-19T17:44:11.750Z,45.28
2022-12-19T17:46:38.596Z,45.67
2022-12-19T17:49:05.560Z,45.88
2022-12-19T17:51:32.127Z,48.05
2022-12-19T17:53:58.652Z,47.08
2022-12-19T17:56:25.179Z,47.72
2022-12-19T17:58:51.861Z,50.80
2022-12-19T18:01:24.182Z,49.92
2022-12-19T18:03:53.651Z,49.38
2022-12-19T18:06:20.416Z,48.60
2022-12-19T18:08:47.147Z,54.00
2022-12-19T18:11:23.273Z,51.35
2022-12-19T18:13:52.049Z,56.25
2022-12-19T18:16:22.637Z,57.97
2022-12-19T18:18:49.781Z,54.72
2022-12-19T18:21:19.161Z,55.10
2022-12-19T18:23:46.417Z,55.17
2022-12-19T18:26:13.380Z,52.63
2022-12-19T18:28:40.726Z,55.40
2022-12-19T18:31:25.400Z,55.50
2022-12-19T18:33:54.668Z,53.70
2022-12-19T18:36:27.361Z,55.67
2022-12-19T18:38:57.191Z,55.88
2022-12-19T18:41:23.830Z,52.63
2022-12-19T18:43:50.469Z,56.08
2022-12-19T18:46:22.326Z,57.10
2022-12-19T18:48:49.082Z,63.03
2022-12-19T18:51:19.922Z,59.30
2022-12-19T18:53:47.773Z,62.60
2022-12-19T18:56:14.946Z,61.60
2022-12-19T18:58:41.812Z,59.38
2022-12-19T19:01:17.618Z,66.65
2022-12-19T19:03:53.269Z,62.20
2022-12-19T19:06:22.894Z,61.67
2022-12-19T19:08:51.582Z,61.60
2022-12-19T19:11:20.309Z,64.80
2022-12-19T19:13:46.831Z,62.42
2022-12-19T19:16:20.432Z,60.92
2022-12-19T19:18:50.778Z,61.00
2022-12-19T19:21:18.367Z,62.17
2022-12-19T19:23:55.468Z,61.42
2022-12-19T19:26:22.194Z,60.42
2022-12-19T19:28:52.194Z,63.00
2022-12-19T19:31:23.416Z,59.58
2022-12-19T19:34:00.647Z,63.53
2022-12-19T19:36:31.119Z,62.70
2022-12-19T19:38:58.342Z,61.97
2022-12-19T19:41:29.838Z,61.35
2022-12-19T19:43:58.739Z,62.50
2022-12-19T19:46:26.066Z,60.60
2022-12-19T19:48:52.736Z,60.03
2022-12-19T19:51:19.333Z,63.08
2022-12-19T19:53:46.121Z,61.38
2022-12-19T19:56:12.699Z,61.42
2022-12-19T19:58:39.767Z,62.47
2022-12-19T20:01:13.521Z,65.55
2022-12-19T20:03:42.098Z,63.90
2022-12-19T20:06:10.352Z,64.45
2022-12-19T20:08:40.023Z,71.45
2022-12-19T20:11:09.174Z,69.10
2022-12-19T20:13:36.240Z,65.97
2022-12-19T20:16:06.541Z,63.90
2022-12-19T20:18:33.780Z,67.35
2022-12-19T20:21:00.377Z,66.97
2022-12-19T20:23:27.054Z,72.53
2022-12-19T20:25:53.764Z,70.55
2022-12-19T20:28:20.444Z,72.35
2022-12-19T20:30:47.314Z,70.97
2022-12-19T20:33:14.083Z,70.72
2022-12-19T20:35:40.724Z,70.00
2022-12-19T20:38:07.243Z,73.75
2022-12-19T20:40:33.803Z,70.90
2022-12-19T20:43:00.286Z,74.72
2022-12-19T20:45:26.864Z,81.28
2022-12-19T20:47:53.413Z,73.80
2022-12-19T20:50:19.960Z,75.72
2022-12-19T20:52:46.487Z,72.22
2022-12-19T20:55:13.251Z,74.13
2022-12-19T20:57:39.739Z,77.70
2022-12-19T21:00:10.501Z,75.95
2022-12-19T21:03:16.806Z,77.47
2022-12-19T21:05:23.625Z,83.43
2022-12-19T21:07:50.197Z,75.40
2022-12-19T21:10:16.823Z,74.72
2022-12-19T21:12:47.676Z,77.47
2022-12-19T21:15:15.542Z,81.63
2022-12-19T21:17:42.265Z,76.45
2022-12-19T21:20:09.444Z,78.28
2022-12-19T21:22:36.014Z,82.85
2022-12-19T21:25:03.996Z,78.20
2022-12-19T21:27:30.530Z,81.30
2022-12-19T21:29:57.209Z,78.72
2022-12-19T21:32:23.739Z,82.70
2022-12-19T21:34:53.031Z,79.93
2022-12-19T21:37:19.729Z,81.75
2022-12-19T21:39:46.256Z,80.32
2022-12-19T21:42:12.773Z,80.68
2022-12-19T21:44:39.379Z,79.82
2022-12-19T21:47:05.972Z,76.38
2022-12-19T21:49:33.573Z,76.55
2022-12-19T21:52:00.108Z,76.88
2022-12-19T21:54:26.661Z,77.97
2022-12-19T21:56:53.274Z,76.13
2022-12-19T21:59:19.759Z,81.88
2022-12-19T22:01:46.623Z,83.75
2022-12-19T22:04:21.028Z,83.10
2022-12-19T22:06:48.927Z,80.70
2022-12-19T22:09:18.830Z,85.72
2022-12-19T22:11:46.330Z,86.55
2022-12-19T22:14:14.732Z,82.78
2022-12-19T22:16:42.184Z,88.25
2022-12-19T22:19:09.962Z,85.28
2022-12-19T22:21:37.170Z,83.35
2022-12-19T22:24:04.725Z,86.47
2022-12-19T22:26:32.086Z,123.68
2022-12-19T22:28:59.094Z,90.07
2022-12-19T22:31:30.892Z,88.03
2022-12-19T22:34:03.440Z,95.60
2022-12-19T22:36:32.858Z,117.95
2022-12-19T22:39:01.192Z,93.55
2022-12-19T22:41:28.355Z,96.18
2022-12-19T22:43:55.776Z,96.05
2022-12-19T22:46:28.018Z,95.90
2022-12-19T22:48:59.715Z,97.32
2022-12-19T22:51:27.898Z,98.80
2022-12-19T22:53:54.865Z,92.03
2022-12-19T22:56:23.978Z,95.82
2022-12-19T22:58:52.925Z,95.07
2022-12-19T23:01:25.383Z,90.13
2022-12-19T23:03:53.805Z,92.65
2022-12-19T23:06:20.810Z,90.13
2022-12-19T23:08:47.611Z,92.93
2022-12-19T23:11:17.434Z,93.70
2022-12-19T23:13:45.473Z,91.05
2022-12-19T23:16:13.279Z,90.85
2022-12-19T23:18:40.910Z,87.25
2022-12-19T23:21:17.411Z,92.38
2022-12-19T23:23:45.688Z,90.85
2022-12-19T23:26:18.369Z,90.13
2022-12-19T23:28:49.514Z,91.78
2022-12-19T23:31:16.035Z,89.95
2022-12-19T23:33:42.543Z,90.85
2022-12-19T23:36:10.236Z,89.88
2022-12-19T23:38:36.804Z,90.25
2022-12-19T23:41:05.610Z,90.97
2022-12-19T23:43:33.640Z,91.60
2022-12-19T23:46:00.251Z,87.78
2022-12-19T23:48:28.525Z,88.50
2022-12-19T23:51:04.024Z,90.85
2022-12-19T23:53:31.718Z,88.20
2022-12-19T23:55:58.983Z,86.60
2022-12-19T23:58:25.618Z,86.55
